sensor_id;sensor_type;location;lat;lon;timestamp;P1;durP1;ratioP1;P2;durP2;ratioP2
8654;SDS011;13500;52.514;13.462;2023-10-13T00:00:30;8.23;;;5.20;;
8654;SDS011;13500;52.514;13.462;2023-10-13T00:03:03;8.63;;;5.00;;
8654;SDS011;13500;52.514;13.462;2023-10-13T00:05:32;10.63;;;5.20;;
8654;SDS011;13500;52.514;13.462;2023-10-13T00:08:01;7.23;;;5.27;;
8654;SDS011;13500;52.514;13.462;2023-10-13T00:10:30;13.90;;;7.50;;
8654;SDS011;13500;52.514;13.462;2023-10-13T00:13:00;17.53;;;8.90;;
8654;SDS011;13500;52.514;13.462;2023-10-13T00:15:40;13.03;;;7.80;;
8654;SDS011;13500;52.514;13.462;2023-10-13T00:18:13;15.33;;;8.53;;
8654;SDS011;13500;52.514;13.462;2023-10-13T00:20:41;15.43;;;8.10;;
8654;SDS011;13500;52.514;13.462;2023-10-13T00:23:15;11.80;;;6.53;;
8654;SDS011;13500;52.514;13.462;2023-10-13T00:25:47;15.27;;;5.47;;
8654;SDS011;13500;52.514;13.462;2023-10-13T00:28:23;9.40;;;5.50;;
8654;SDS011;13500;52.514;13.462;2023-10-13T00:30:54;12.87;;;5.83;;
8654;SDS011;13500;52.514;13.462;2023-10-13T00:33:28;9.20;;;5.00;;
8654;SDS011;13500;52.514;13.462;2023-10-13T00:35:58;9.50;;;4.80;;
8654;SDS011;13500;52.514;13.462;2023-10-13T00:38:28;7.03;;;3.90;;
8654;SDS011;13500;52.514;13.462;2023-10-13T00:40:55;7.00;;;3.57;;
8654;SDS011;13500;52.514;13.462;2023-10-13T00:43:30;8.37;;;3.97;;
8654;SDS011;13500;52.514;13.462;2023-10-13T00:46:02;6.67;;;3.30;;
8654;SDS011;13500;52.514;13.462;2023-10-13T00:48:41;9.67;;;3.90;;
8654;SDS011;13500;52.514;13.462;2023-10-13T00:51:10;8.87;;;3.87;;
8654;SDS011;13500;52.514;13.462;2023-10-13T00:53:49;7.07;;;3.73;;
8654;SDS011;13500;52.514;13.462;2023-10-13T00:56:17;6.50;;;3.47;;
8654;SDS011;13500;52.514;13.462;2023-10-13T00:58:47;8.30;;;3.80;;
8654;SDS011;13500;52.514;13.462;2023-10-13T01:01:18;6.60;;;3.43;;
8654;SDS011;13500;52.514;13.462;2023-10-13T01:03:48;10.73;;;4.00;;
8654;SDS011;13500;52.514;13.462;2023-10-13T01:06:16;5.57;;;3.30;;
8654;SDS011;13500;52.514;13.462;2023-10-13T01:08:46;6.13;;;3.30;;
8654;SDS011;13500;52.514;13.462;2023-10-13T01:11:18;6.20;;;3.63;;
8654;SDS011;13500;52.514;13.462;2023-10-13T01:13:50;6.93;;;3.60;;
8654;SDS011;13500;52.514;13.462;2023-10-13T01:16:20;7.50;;;3.53;;
8654;SDS011;13500;52.514;13.462;2023-10-13T01:18:50;8.67;;;3.30;;
8654;SDS011;13500;52.514;13.462;2023-10-13T01:21:17;6.57;;;3.70;;
8654;SDS011;13500;52.514;13.462;2023-10-13T01:23:48;7.87;;;3.70;;
8654;SDS011;13500;52.514;13.462;2023-10-13T01:26:17;6.40;;;3.47;;
8654;SDS011;13500;52.514;13.462;2023-10-13T01:28:50;6.20;;;3.50;;
8654;SDS011;13500;52.514;13.462;2023-10-13T01:31:18;9.93;;;4.00;;
8654;SDS011;13500;52.514;13.462;2023-10-13T01:33:57;9.13;;;3.57;;
8654;SDS011;13500;52.514;13.462;2023-10-13T01:36:26;6.70;;;3.73;;
8654;SDS011;13500;52.514;13.462;2023-10-13T01:38:56;7.10;;;3.70;;
8654;SDS011;13500;52.514;13.462;2023-10-13T01:41:23;8.33;;;3.93;;
8654;SDS011;13500;52.514;13.462;2023-10-13T01:43:52;8.37;;;4.07;;
8654;SDS011;13500;52.514;13.462;2023-10-13T01:46:19;9.53;;;3.93;;
8654;SDS011;13500;52.514;13.462;2023-10-13T01:48:48;10.73;;;4.40;;
8654;SDS011;13500;52.514;13.462;2023-10-13T01:51:15;10.90;;;4.90;;
8654;SDS011;13500;52.514;13.462;2023-10-13T01:53:43;10.23;;;5.07;;
8654;SDS011;13500;52.514;13.462;2023-10-13T01:56:12;12.57;;;5.23;;
8654;SDS011;13500;52.514;13.462;2023-10-13T01:58:40;10.37;;;4.83;;
8654;SDS011;13500;52.514;13.462;2023-10-13T02:01:14;11.80;;;5.40;;
8654;SDS011;13500;52.514;13.462;2023-10-13T02:03:54;12.40;;;5.43;;
8654;SDS011;13500;52.514;13.462;2023-10-13T02:06:30;12.03;;;5.63;;
8654;SDS011;13500;52.514;13.462;2023-10-13T02:09:00;12.10;;;5.80;;
8654;SDS011;13500;52.514;13.462;2023-10-13T02:11:39;10.50;;;6.23;;
8654;SDS011;13500;52.514;13.462;2023-10-13T02:14:06;9.43;;;5.50;;
8654;SDS011;13500;52.514;13.462;2023-10-13T02:16:37;13.20;;;6.83;;
8654;SDS011;13500;52.514;13.462;2023-10-13T02:19:05;12.27;;;5.77;;
8654;SDS011;13500;52.514;13.462;2023-10-13T02:21:35;14.40;;;6.07;;
8654;SDS011;13500;52.514;13.462;2023-10-13T02:24:06;9.87;;;5.40;;
8654;SDS011;13500;52.514;13.462;2023-10-13T02:26:41;14.13;;;6.23;;
8654;SDS011;13500;52.514;13.462;2023-10-13T02:29:08;12.23;;;6.00;;
8654;SDS011;13500;52.514;13.462;2023-10-13T02:31:41;12.93;;;5.70;;
8654;SDS011;13500;52.514;13.462;2023-10-13T02:34:09;16.60;;;6.77;;
8654;SDS011;13500;52.514;13.462;2023-10-13T02:36:40;12.70;;;6.77;;
8654;SDS011;13500;52.514;13.462;2023-10-13T02:39:15;15.73;;;6.40;;
8654;SDS011;13500;52.514;13.462;2023-10-13T02:41:45;12.53;;;6.50;;
8654;SDS011;13500;52.514;13.462;2023-10-13T02:44:15;11.97;;;7.27;;
8654;SDS011;13500;52.514;13.462;2023-10-13T02:46:53;15.33;;;7.50;;
8654;SDS011;13500;52.514;13.462;2023-10-13T02:49:22;10.23;;;6.80;;
8654;SDS011;13500;52.514;13.462;2023-10-13T02:51:52;8.73;;;6.67;;
8654;SDS011;13500;52.514;13.462;2023-10-13T02:54:22;13.40;;;7.93;;
8654;SDS011;13500;52.514;13.462;2023-10-13T02:56:58;16.23;;;7.70;;
8654;SDS011;13500;52.514;13.462;2023-10-13T02:59:30;14.07;;;7.50;;
8654;SDS011;13500;52.514;13.462;2023-10-13T03:02:01;14.03;;;8.13;;
8654;SDS011;13500;52.514;13.462;2023-10-13T03:04:44;16.50;;;7.93;;
8654;SDS011;13500;52.514;13.462;2023-10-13T03:07:11;16.17;;;8.37;;
8654;SDS011;13500;52.514;13.462;2023-10-13T03:09:42;12.27;;;8.67;;
8654;SDS011;13500;52.514;13.462;2023-10-13T03:12:18;15.57;;;8.80;;
8654;SDS011;13500;52.514;13.462;2023-10-13T03:14:48;13.50;;;8.40;;
8654;SDS011;13500;52.514;13.462;2023-10-13T03:17:15;13.00;;;8.57;;
8654;SDS011;13500;52.514;13.462;2023-10-13T03:19:45;12.20;;;8.80;;
8654;SDS011;13500;52.514;13.462;2023-10-13T03:22:17;14.63;;;9.50;;
8654;SDS011;13500;52.514;13.462;2023-10-13T03:24:57;14.47;;;9.37;;
8654;SDS011;13500;52.514;13.462;2023-10-13T03:27:32;11.40;;;9.43;;
8654;SDS011;13500;52.514;13.462;2023-10-13T03:30:07;13.97;;;9.27;;
8654;SDS011;13500;52.514;13.462;2023-10-13T03:32:41;16.73;;;10.03;;
8654;SDS011;13500;52.514;13.462;2023-10-13T03:35:14;16.30;;;10.33;;
8654;SDS011;13500;52.514;13.462;2023-10-13T03:37:51;15.30;;;10.00;;
8654;SDS011;13500;52.514;13.462;2023-10-13T03:40:20;13.63;;;10.77;;
8654;SDS011;13500;52.514;13.462;2023-10-13T03:43:04;16.33;;;10.57;;
8654;SDS011;13500;52.514;13.462;2023-10-13T03:45:34;12.40;;;10.30;;
8654;SDS011;13500;52.514;13.462;2023-10-13T03:48:06;19.93;;;11.13;;
8654;SDS011;13500;52.514;13.462;2023-10-13T03:50:47;17.70;;;11.07;;
8654;SDS011;13500;52.514;13.462;2023-10-13T03:53:24;14.63;;;11.27;;
8654;SDS011;13500;52.514;13.462;2023-10-13T03:55:52;18.23;;;11.37;;
8654;SDS011;13500;52.514;13.462;2023-10-13T03:58:36;14.77;;;11.43;;
8654;SDS011;13500;52.514;13.462;2023-10-13T04:01:05;16.20;;;11.37;;
8654;SDS011;13500;52.514;13.462;2023-10-13T04:03:33;21.03;;;12.97;;
8654;SDS011;13500;52.514;13.462;2023-10-13T04:06:04;21.47;;;12.67;;
8654;SDS011;13500;52.514;13.462;2023-10-13T04:08:34;18.70;;;12.20;;
8654;SDS011;13500;52.514;13.462;2023-10-13T04:11:22;22.07;;;13.50;;
8654;SDS011;13500;52.514;13.462;2023-10-13T04:14:32;18.83;;;13.03;;
8654;SDS011;13500;52.514;13.462;2023-10-13T04:17:14;22.73;;;13.83;;
8654;SDS011;13500;52.514;13.462;2023-10-13T04:19:49;19.47;;;13.03;;
8654;SDS011;13500;52.514;13.462;2023-10-13T04:22:32;27.50;;;15.17;;
8654;SDS011;13500;52.514;13.462;2023-10-13T04:25:18;24.13;;;14.87;;
8654;SDS011;13500;52.514;13.462;2023-10-13T04:28:06;20.30;;;14.33;;
8654;SDS011;13500;52.514;13.462;2023-10-13T04:31:02;20.93;;;15.10;;
8654;SDS011;13500;52.514;13.462;2023-10-13T04:33:39;20.30;;;15.37;;
8654;SDS011;13500;52.514;13.462;2023-10-13T04:36:19;23.13;;;15.67;;
8654;SDS011;13500;52.514;13.462;2023-10-13T04:39:03;23.83;;;16.23;;
8654;SDS011;13500;52.514;13.462;2023-10-13T04:41:36;23.07;;;16.07;;
8654;SDS011;13500;52.514;13.462;2023-10-13T04:44:11;23.90;;;16.20;;
8654;SDS011;13500;52.514;13.462;2023-10-13T04:46:59;20.27;;;17.17;;
8654;SDS011;13500;52.514;13.462;2023-10-13T04:49:44;19.97;;;15.27;;
8654;SDS011;13500;52.514;13.462;2023-10-13T04:52:19;21.60;;;16.63;;
8654;SDS011;13500;52.514;13.462;2023-10-13T04:55:01;21.93;;;16.40;;
8654;SDS011;13500;52.514;13.462;2023-10-13T04:57:44;22.73;;;17.10;;
8654;SDS011;13500;52.514;13.462;2023-10-13T05:00:16;21.20;;;16.13;;
8654;SDS011;13500;52.514;13.462;2023-10-13T05:03:03;20.83;;;16.40;;
8654;SDS011;13500;52.514;13.462;2023-10-13T05:05:49;20.40;;;17.27;;
8654;SDS011;13500;52.514;13.462;2023-10-13T05:08:33;26.30;;;17.37;;
8654;SDS011;13500;52.514;13.462;2023-10-13T05:11:19;20.83;;;17.13;;
8654;SDS011;13500;52.514;13.462;2023-10-13T05:14:06;19.20;;;16.67;;
8654;SDS011;13500;52.514;13.462;2023-10-13T05:16:52;24.40;;;17.53;;
8654;SDS011;13500;52.514;13.462;2023-10-13T05:19:47;22.10;;;16.80;;
8654;SDS011;13500;52.514;13.462;2023-10-13T05:22:33;19.73;;;16.57;;
8654;SDS011;13500;52.514;13.462;2023-10-13T05:25:18;20.80;;;16.73;;
8654;SDS011;13500;52.514;13.462;2023-10-13T05:28:04;23.87;;;15.97;;
8654;SDS011;13500;52.514;13.462;2023-10-13T05:31:02;23.43;;;16.13;;
8654;SDS011;13500;52.514;13.462;2023-10-13T05:33:47;19.43;;;16.13;;
8654;SDS011;13500;52.514;13.462;2023-10-13T05:36:34;17.97;;;15.80;;
8654;SDS011;13500;52.514;13.462;2023-10-13T05:39:19;17.57;;;15.63;;
8654;SDS011;13500;52.514;13.462;2023-10-13T05:42:05;18.07;;;15.27;;
8654;SDS011;13500;52.514;13.462;2023-10-13T05:44:50;18.90;;;15.27;;
8654;SDS011;13500;52.514;13.462;2023-10-13T05:47:44;17.60;;;15.07;;
8654;SDS011;13500;52.514;13.462;2023-10-13T05:50:17;21.57;;;15.67;;
8654;SDS011;13500;52.514;13.462;2023-10-13T05:53:17;19.73;;;14.33;;
8654;SDS011;13500;52.514;13.462;2023-10-13T05:56:03;18.60;;;15.07;;
8654;SDS011;13500;52.514;13.462;2023-10-13T05:58:48;20.60;;;14.47;;
8654;SDS011;13500;52.514;13.462;2023-10-13T06:01:34;18.50;;;14.83;;
8654;SDS011;13500;52.514;13.462;2023-10-13T06:04:19;18.23;;;14.13;;
8654;SDS011;13500;52.514;13.462;2023-10-13T06:07:05;16.93;;;14.40;;
8654;SDS011;13500;52.514;13.462;2023-10-13T06:09:51;19.00;;;13.97;;
8654;SDS011;13500;52.514;13.462;2023-10-13T06:12:37;18.20;;;13.57;;
8654;SDS011;13500;52.514;13.462;2023-10-13T06:15:23;15.10;;;13.03;;
8654;SDS011;13500;52.514;13.462;2023-10-13T06:18:08;20.30;;;12.73;;
8654;SDS011;13500;52.514;13.462;2023-10-13T06:21:02;18.30;;;13.03;;
8654;SDS011;13500;52.514;13.462;2023-10-13T06:23:48;16.50;;;13.40;;
8654;SDS011;13500;52.514;13.462;2023-10-13T06:26:34;15.63;;;13.17;;
8654;SDS011;13500;52.514;13.462;2023-10-13T06:29:19;13.87;;;12.13;;
8654;SDS011;13500;52.514;13.462;2023-10-13T06:31:48;15.77;;;12.00;;
8654;SDS011;13500;52.514;13.462;2023-10-13T06:34:16;15.00;;;11.90;;
8654;SDS011;13500;52.514;13.462;2023-10-13T06:36:47;15.17;;;11.40;;
8654;SDS011;13500;52.514;13.462;2023-10-13T06:39:15;12.27;;;11.07;;
8654;SDS011;13500;52.514;13.462;2023-10-13T06:42:03;13.50;;;10.50;;
8654;SDS011;13500;52.514;13.462;2023-10-13T06:44:31;12.33;;;10.37;;
8654;SDS011;13500;52.514;13.462;2023-10-13T06:46:59;12.37;;;10.13;;
8654;SDS011;13500;52.514;13.462;2023-10-13T06:49:30;13.17;;;10.27;;
8654;SDS011;13500;52.514;13.462;2023-10-13T06:52:05;13.40;;;10.73;;
8654;SDS011;13500;52.514;13.462;2023-10-13T06:54:33;13.03;;;8.83;;
8654;SDS011;13500;52.514;13.462;2023-10-13T06:57:03;10.33;;;8.77;;
8654;SDS011;13500;52.514;13.462;2023-10-13T06:59:33;9.80;;;8.07;;
8654;SDS011;13500;52.514;13.462;2023-10-13T07:02:03;10.07;;;8.20;;
8654;SDS011;13500;52.514;13.462;2023-10-13T07:04:52;10.80;;;7.60;;
8654;SDS011;13500;52.514;13.462;2023-10-13T07:07:24;9.10;;;6.80;;
8654;SDS011;13500;52.514;13.462;2023-10-13T07:09:52;10.07;;;7.00;;
8654;SDS011;13500;52.514;13.462;2023-10-13T07:12:26;7.83;;;6.90;;
8654;SDS011;13500;52.514;13.462;2023-10-13T07:14:54;6.87;;;6.23;;
8654;SDS011;13500;52.514;13.462;2023-10-13T07:17:37;9.97;;;6.80;;
8654;SDS011;13500;52.514;13.462;2023-10-13T07:20:06;11.67;;;8.17;;
8654;SDS011;13500;52.514;13.462;2023-10-13T07:22:42;10.47;;;7.20;;
8654;SDS011;13500;52.514;13.462;2023-10-13T07:25:22;7.77;;;6.97;;
8654;SDS011;13500;52.514;13.462;2023-10-13T07:27:54;9.40;;;7.93;;
8654;SDS011;13500;52.514;13.462;2023-10-13T07:30:24;8.27;;;6.97;;
8654;SDS011;13500;52.514;13.462;2023-10-13T07:32:54;8.87;;;7.50;;
8654;SDS011;13500;52.514;13.462;2023-10-13T07:35:25;8.93;;;7.30;;
8654;SDS011;13500;52.514;13.462;2023-10-13T07:37:57;9.67;;;7.50;;
8654;SDS011;13500;52.514;13.462;2023-10-13T07:40:27;7.70;;;6.87;;
8654;SDS011;13500;52.514;13.462;2023-10-13T07:43:08;10.20;;;7.37;;
8654;SDS011;13500;52.514;13.462;2023-10-13T07:45:37;12.40;;;7.50;;
8654;SDS011;13500;52.514;13.462;2023-10-13T07:48:07;10.07;;;7.57;;
8654;SDS011;13500;52.514;13.462;2023-10-13T07:50:43;10.23;;;7.17;;
8654;SDS011;13500;52.514;13.462;2023-10-13T07:53:12;9.70;;;7.03;;
8654;SDS011;13500;52.514;13.462;2023-10-13T07:55:56;9.97;;;6.83;;
8654;SDS011;13500;52.514;13.462;2023-10-13T07:58:31;11.10;;;7.50;;
8654;SDS011;13500;52.514;13.462;2023-10-13T08:00:59;7.83;;;7.03;;
8654;SDS011;13500;52.514;13.462;2023-10-13T08:03:34;8.40;;;6.57;;
8654;SDS011;13500;52.514;13.462;2023-10-13T08:06:10;11.13;;;6.93;;
8654;SDS011;13500;52.514;13.462;2023-10-13T08:08:52;12.30;;;6.93;;
8654;SDS011;13500;52.514;13.462;2023-10-13T08:11:34;12.07;;;7.13;;
8654;SDS011;13500;52.514;13.462;2023-10-13T08:14:06;8.90;;;6.90;;
8654;SDS011;13500;52.514;13.462;2023-10-13T08:17:05;8.40;;;6.37;;
8654;SDS011;13500;52.514;13.462;2023-10-13T08:19:35;7.60;;;6.87;;
8654;SDS011;13500;52.514;13.462;2023-10-13T08:22:11;10.87;;;7.17;;
8654;SDS011;13500;52.514;13.462;2023-10-13T08:24:51;9.50;;;6.33;;
8654;SDS011;13500;52.514;13.462;2023-10-13T08:27:25;10.93;;;6.90;;
8654;SDS011;13500;52.514;13.462;2023-10-13T08:30:06;9.17;;;6.70;;
8654;SDS011;13500;52.514;13.462;2023-10-13T08:32:48;8.07;;;6.70;;
8654;SDS011;13500;52.514;13.462;2023-10-13T08:35:24;8.37;;;6.50;;
8654;SDS011;13500;52.514;13.462;2023-10-13T08:38:02;8.50;;;6.70;;
8654;SDS011;13500;52.514;13.462;2023-10-13T08:40:57;8.07;;;6.40;;
8654;SDS011;13500;52.514;13.462;2023-10-13T08:43:44;11.57;;;7.23;;
8654;SDS011;13500;52.514;13.462;2023-10-13T08:46:19;9.83;;;6.97;;
8654;SDS011;13500;52.514;13.462;2023-10-13T08:48:56;6.87;;;6.20;;
8654;SDS011;13500;52.514;13.462;2023-10-13T08:51:34;9.63;;;6.27;;
8654;SDS011;13500;52.514;13.462;2023-10-13T08:54:13;11.10;;;6.13;;
8654;SDS011;13500;52.514;13.462;2023-10-13T08:56:47;11.63;;;6.90;;
8654;SDS011;13500;52.514;13.462;2023-10-13T08:59:22;9.53;;;7.13;;
8654;SDS011;13500;52.514;13.462;2023-10-13T09:01:50;7.50;;;6.33;;
8654;SDS011;13500;52.514;13.462;2023-10-13T09:04:42;9.13;;;6.13;;
8654;SDS011;13500;52.514;13.462;2023-10-13T09:07:11;8.93;;;6.60;;
8654;SDS011;13500;52.514;13.462;2023-10-13T09:09:49;7.80;;;5.93;;
8654;SDS011;13500;52.514;13.462;2023-10-13T09:12:43;8.57;;;6.17;;
8654;SDS011;13500;52.514;13.462;2023-10-13T09:15:28;8.90;;;6.17;;
8654;SDS011;13500;52.514;13.462;2023-10-13T09:18:25;8.40;;;5.97;;
8654;SDS011;13500;52.514;13.462;2023-10-13T09:21:15;6.30;;;5.70;;
8654;SDS011;13500;52.514;13.462;2023-10-13T09:24:03;8.10;;;5.70;;
8654;SDS011;13500;52.514;13.462;2023-10-13T09:26:49;7.70;;;6.27;;
8654;SDS011;13500;52.514;13.462;2023-10-13T09:29:20;7.10;;;6.27;;
8654;SDS011;13500;52.514;13.462;2023-10-13T09:31:58;6.67;;;5.90;;
8654;SDS011;13500;52.514;13.462;2023-10-13T09:34:28;8.50;;;6.40;;
8654;SDS011;13500;52.514;13.462;2023-10-13T09:37:07;7.27;;;6.37;;
8654;SDS011;13500;52.514;13.462;2023-10-13T09:39:37;9.83;;;6.23;;
8654;SDS011;13500;52.514;13.462;2023-10-13T09:42:11;7.43;;;6.33;;
8654;SDS011;13500;52.514;13.462;2023-10-13T09:44:42;8.23;;;6.73;;
8654;SDS011;13500;52.514;13.462;2023-10-13T09:47:18;11.10;;;7.10;;
8654;SDS011;13500;52.514;13.462;2023-10-13T09:49:59;8.93;;;6.70;;
8654;SDS011;13500;52.514;13.462;2023-10-13T09:52:32;9.37;;;6.83;;
8654;SDS011;13500;52.514;13.462;2023-10-13T09:55:03;11.07;;;6.23;;
8654;SDS011;13500;52.514;13.462;2023-10-13T09:57:37;11.03;;;6.93;;
8654;SDS011;13500;52.514;13.462;2023-10-13T10:00:12;8.47;;;6.33;;
8654;SDS011;13500;52.514;13.462;2023-10-13T10:03:01;11.77;;;7.40;;
8654;SDS011;13500;52.514;13.462;2023-10-13T10:05:43;8.97;;;7.70;;
8654;SDS011;13500;52.514;13.462;2023-10-13T10:08:23;7.00;;;6.30;;
8654;SDS011;13500;52.514;13.462;2023-10-13T10:11:00;8.70;;;6.43;;
8654;SDS011;13500;52.514;13.462;2023-10-13T10:13:34;9.67;;;6.50;;
8654;SDS011;13500;52.514;13.462;2023-10-13T10:16:03;8.97;;;6.40;;
8654;SDS011;13500;52.514;13.462;2023-10-13T10:18:41;8.43;;;5.83;;
8654;SDS011;13500;52.514;13.462;2023-10-13T10:21:10;7.03;;;6.20;;
8654;SDS011;13500;52.514;13.462;2023-10-13T10:23:41;6.53;;;5.83;;
8654;SDS011;13500;52.514;13.462;2023-10-13T10:26:20;6.90;;;5.80;;
8654;SDS011;13500;52.514;13.462;2023-10-13T10:28:48;9.07;;;5.90;;
8654;SDS011;13500;52.514;13.462;2023-10-13T10:31:16;12.03;;;6.43;;
8654;SDS011;13500;52.514;13.462;2023-10-13T10:33:46;10.57;;;6.70;;
8654;SDS011;13500;52.514;13.462;2023-10-13T10:36:22;7.10;;;5.97;;
8654;SDS011;13500;52.514;13.462;2023-10-13T10:38:58;9.17;;;6.13;;
8654;SDS011;13500;52.514;13.462;2023-10-13T10:41:27;9.77;;;7.07;;
8654;SDS011;13500;52.514;13.462;2023-10-13T10:44:09;8.63;;;6.13;;
8654;SDS011;13500;52.514;13.462;2023-10-13T10:46:43;8.50;;;6.60;;
8654;SDS011;13500;52.514;13.462;2023-10-13T10:49:26;8.10;;;6.67;;
8654;SDS011;13500;52.514;13.462;2023-10-13T10:51:59;8.57;;;7.63;;
8654;SDS011;13500;52.514;13.462;2023-10-13T10:54:30;10.50;;;7.47;;
8654;SDS011;13500;52.514;13.462;2023-10-13T10:56:59;12.53;;;8.47;;
8654;SDS011;13500;52.514;13.462;2023-10-13T10:59:38;10.53;;;8.73;;
8654;SDS011;13500;52.514;13.462;2023-10-13T11:02:06;12.97;;;9.03;;
8654;SDS011;13500;52.514;13.462;2023-10-13T11:04:35;11.47;;;9.27;;
8654;SDS011;13500;52.514;13.462;2023-10-13T11:07:08;13.60;;;9.83;;
8654;SDS011;13500;52.514;13.462;2023-10-13T11:09:36;13.83;;;10.30;;
8654;SDS011;13500;52.514;13.462;2023-10-13T11:12:12;12.00;;;9.20;;
8654;SDS011;13500;52.514;13.462;2023-10-13T11:14:59;9.83;;;8.40;;
8654;SDS011;13500;52.514;13.462;2023-10-13T11:17:28;11.93;;;8.40;;
8654;SDS011;13500;52.514;13.462;2023-10-13T11:20:10;11.00;;;9.87;;
8654;SDS011;13500;52.514;13.462;2023-10-13T11:22:47;10.80;;;9.70;;
8654;SDS011;13500;52.514;13.462;2023-10-13T11:25:20;10.40;;;9.30;;
8654;SDS011;13500;52.514;13.462;2023-10-13T11:27:57;12.27;;;8.93;;
8654;SDS011;13500;52.514;13.462;2023-10-13T11:30:26;11.37;;;8.47;;
8654;SDS011;13500;52.514;13.462;2023-10-13T11:33:08;11.97;;;8.87;;
8654;SDS011;13500;52.514;13.462;2023-10-13T11:35:37;10.57;;;8.00;;
8654;SDS011;13500;52.514;13.462;2023-10-13T11:38:26;10.77;;;7.77;;
8654;SDS011;13500;52.514;13.462;2023-10-13T11:40:56;8.63;;;7.73;;
8654;SDS011;13500;52.514;13.462;2023-10-13T11:43:43;12.17;;;7.60;;
8654;SDS011;13500;52.514;13.462;2023-10-13T11:46:38;11.27;;;7.67;;
8654;SDS011;13500;52.514;13.462;2023-10-13T11:49:43;11.93;;;7.40;;
8654;SDS011;13500;52.514;13.462;2023-10-13T11:52:11;12.97;;;7.40;;
8654;SDS011;13500;52.514;13.462;2023-10-13T11:54:54;9.90;;;7.37;;
8654;SDS011;13500;52.514;13.462;2023-10-13T11:57:22;10.23;;;7.80;;
8654;SDS011;13500;52.514;13.462;2023-10-13T11:59:50;8.90;;;6.93;;
8654;SDS011;13500;52.514;13.462;2023-10-13T12:02:23;11.53;;;7.20;;
8654;SDS011;13500;52.514;13.462;2023-10-13T12:05:09;9.10;;;7.57;;
8654;SDS011;13500;52.514;13.462;2023-10-13T12:07:42;8.17;;;6.97;;
8654;SDS011;13500;52.514;13.462;2023-10-13T12:10:16;9.53;;;7.13;;
8654;SDS011;13500;52.514;13.462;2023-10-13T12:13:00;9.23;;;6.60;;
8654;SDS011;13500;52.514;13.462;2023-10-13T12:15:32;9.90;;;6.90;;
8654;SDS011;13500;52.514;13.462;2023-10-13T12:18:18;11.77;;;6.40;;
8654;SDS011;13500;52.514;13.462;2023-10-13T12:20:49;8.67;;;6.50;;
8654;SDS011;13500;52.514;13.462;2023-10-13T12:23:17;9.17;;;6.70;;
8654;SDS011;13500;52.514;13.462;2023-10-13T12:25:48;9.23;;;6.77;;
8654;SDS011;13500;52.514;13.462;2023-10-13T12:28:24;9.13;;;6.40;;
8654;SDS011;13500;52.514;13.462;2023-10-13T12:30:55;10.07;;;7.83;;
8654;SDS011;13500;52.514;13.462;2023-10-13T12:33:25;12.67;;;7.47;;
8654;SDS011;13500;52.514;13.462;2023-10-13T12:36:03;8.03;;;5.87;;
8654;SDS011;13500;52.514;13.462;2023-10-13T12:38:33;11.27;;;5.90;;
8654;SDS011;13500;52.514;13.462;2023-10-13T12:41:18;12.13;;;5.67;;
8654;SDS011;13500;52.514;13.462;2023-10-13T12:44:05;10.57;;;5.90;;
8654;SDS011;13500;52.514;13.462;2023-10-13T12:46:51;6.47;;;5.57;;
8654;SDS011;13500;52.514;13.462;2023-10-13T12:49:38;11.60;;;5.77;;
8654;SDS011;13500;52.514;13.462;2023-10-13T12:52:19;8.53;;;5.73;;
8654;SDS011;13500;52.514;13.462;2023-10-13T12:54:52;11.47;;;5.87;;
8654;SDS011;13500;52.514;13.462;2023-10-13T12:57:34;10.53;;;5.17;;
8654;SDS011;13500;52.514;13.462;2023-10-13T13:00:12;8.57;;;6.00;;
8654;SDS011;13500;52.514;13.462;2023-10-13T13:03:00;9.27;;;5.40;;
8654;SDS011;13500;52.514;13.462;2023-10-13T13:05:37;9.60;;;5.60;;
8654;SDS011;13500;52.514;13.462;2023-10-13T13:08:11;9.70;;;5.63;;
8654;SDS011;13500;52.514;13.462;2023-10-13T13:10:48;9.20;;;5.60;;
8654;SDS011;13500;52.514;13.462;2023-10-13T13:13:18;10.03;;;5.30;;
8654;SDS011;13500;52.514;13.462;2023-10-13T13:15:51;9.27;;;5.40;;
8654;SDS011;13500;52.514;13.462;2023-10-13T13:18:19;6.87;;;5.03;;
8654;SDS011;13500;52.514;13.462;2023-10-13T13:20:47;8.70;;;5.80;;
8654;SDS011;13500;52.514;13.462;2023-10-13T13:23:21;8.27;;;4.90;;
8654;SDS011;13500;52.514;13.462;2023-10-13T13:25:53;11.37;;;5.63;;
8654;SDS011;13500;52.514;13.462;2023-10-13T13:28:25;9.17;;;5.50;;
8654;SDS011;13500;52.514;13.462;2023-10-13T13:30:56;9.63;;;5.23;;
8654;SDS011;13500;52.514;13.462;2023-10-13T13:33:24;12.17;;;5.23;;
8654;SDS011;13500;52.514;13.462;2023-10-13T13:35:55;11.13;;;5.43;;
8654;SDS011;13500;52.514;13.462;2023-10-13T13:38:26;9.17;;;5.53;;
8654;SDS011;13500;52.514;13.462;2023-10-13T13:40:58;9.63;;;5.37;;
8654;SDS011;13500;52.514;13.462;2023-10-13T13:43:29;8.67;;;5.20;;
8654;SDS011;13500;52.514;13.462;2023-10-13T13:46:05;12.53;;;5.67;;
8654;SDS011;13500;52.514;13.462;2023-10-13T13:48:37;10.17;;;5.20;;
8654;SDS011;13500;52.514;13.462;2023-10-13T13:51:05;10.07;;;5.27;;
8654;SDS011;13500;52.514;13.462;2023-10-13T13:53:40;9.60;;;5.53;;
8654;SDS011;13500;52.514;13.462;2023-10-13T13:56:12;7.77;;;5.00;;
8654;SDS011;13500;52.514;13.462;2023-10-13T13:58:44;12.57;;;5.33;;
8654;SDS011;13500;52.514;13.462;2023-10-13T14:01:13;8.60;;;5.17;;
8654;SDS011;13500;52.514;13.462;2023-10-13T14:03:42;11.27;;;5.60;;
8654;SDS011;13500;52.514;13.462;2023-10-13T14:06:13;10.83;;;5.50;;
8654;SDS011;13500;52.514;13.462;2023-10-13T14:08:45;8.33;;;5.30;;
8654;SDS011;13500;52.514;13.462;2023-10-13T14:11:15;10.23;;;5.20;;
8654;SDS011;13500;52.514;13.462;2023-10-13T14:14:08;9.97;;;5.60;;
8654;SDS011;13500;52.514;13.462;2023-10-13T14:16:39;12.20;;;5.33;;
8654;SDS011;13500;52.514;13.462;2023-10-13T14:19:11;10.40;;;5.30;;
8654;SDS011;13500;52.514;13.462;2023-10-13T14:21:39;12.07;;;5.43;;
8654;SDS011;13500;52.514;13.462;2023-10-13T14:24:09;8.47;;;4.97;;
8654;SDS011;13500;52.514;13.462;2023-10-13T14:26:43;14.80;;;5.43;;
8654;SDS011;13500;52.514;13.462;2023-10-13T14:29:13;11.93;;;5.47;;
8654;SDS011;13500;52.514;13.462;2023-10-13T14:31:42;10.80;;;5.00;;
8654;SDS011;13500;52.514;13.462;2023-10-13T14:34:10;11.13;;;4.97;;
8654;SDS011;13500;52.514;13.462;2023-10-13T14:36:39;12.40;;;5.13;;
8654;SDS011;13500;52.514;13.462;2023-10-13T14:39:07;10.83;;;5.07;;
8654;SDS011;13500;52.514;13.462;2023-10-13T14:41:36;10.83;;;5.30;;
8654;SDS011;13500;52.514;13.462;2023-10-13T14:44:05;10.83;;;5.80;;
8654;SDS011;13500;52.514;13.462;2023-10-13T14:46:35;8.20;;;4.67;;
8654;SDS011;13500;52.514;13.462;2023-10-13T14:49:05;9.40;;;5.07;;
8654;SDS011;13500;52.514;13.462;2023-10-13T14:51:34;10.40;;;5.50;;
8654;SDS011;13500;52.514;13.462;2023-10-13T14:54:06;12.23;;;5.77;;
8654;SDS011;13500;52.514;13.462;2023-10-13T14:56:34;9.07;;;5.37;;
8654;SDS011;13500;52.514;13.462;2023-10-13T14:59:02;11.73;;;5.90;;
8654;SDS011;13500;52.514;13.462;2023-10-13T15:01:32;13.53;;;5.40;;
8654;SDS011;13500;52.514;13.462;2023-10-13T15:04:03;12.97;;;5.80;;
8654;SDS011;13500;52.514;13.462;2023-10-13T15:06:32;13.03;;;5.70;;
8654;SDS011;13500;52.514;13.462;2023-10-13T15:09:00;9.97;;;5.80;;
8654;SDS011;13500;52.514;13.462;2023-10-13T15:11:31;10.27;;;5.20;;
8654;SDS011;13500;52.514;13.462;2023-10-13T15:14:14;11.53;;;5.63;;
8654;SDS011;13500;52.514;13.462;2023-10-13T15:16:43;11.00;;;5.73;;
8654;SDS011;13500;52.514;13.462;2023-10-13T15:19:14;10.97;;;5.20;;
8654;SDS011;13500;52.514;13.462;2023-10-13T15:21:43;12.27;;;5.57;;
8654;SDS011;13500;52.514;13.462;2023-10-13T15:24:16;12.23;;;5.53;;